Time;durP1;ratioP1;P1;durP2;ratioP2;P2;SDS_P1;SDS_P2;PMS_P1;PMS_P2;Temp;Humidity;BMP_temperature;BMP_pressure;BME280_temperature;BME280_humidity;BME280_pressure;Samples;Min_cycle;Max_cycle;Signal;HPM_P1;HPM_P2
2021/07/15 00:00:00;;;;;;;15.18;10.28;;;;;;;18.48;80.12;95449.53;1740601;82;21511;-59
2021/07/15 00:02:27;;;;;;;12.70;11.35;;;;;;;18.49;80.33;95451.25;1740143;82;21046;-58
2021/07/15 00:04:53;;;;;;;15.08;10.70;;;;;;;18.55;80.02;95454.09;1740165;82;21105;-59
2021/07/15 00:07:22;;;;;;;13.18;11.88;;;;;;;18.50;80.46;95448.98;1740606;82;21042;-58
2021/07/15 00:09:50;;;;;;;11.43;10.32;;;;;;;18.56;80.62;95445.13;1740173;82;21006;-59
2021/07/15 00:12:17;;;;;;;11.83;10.63;;;;;;;18.66;80.03;95449.03;1740577;82;21495;-59
2021/07/15 00:14:45;;;;;;;12.47;11.15;;;;;;;18.47;79.95;95453.16;1740472;82;20993;-59
2021/07/15 00:17:11;;;;;;;16.12;12.20;;;;;;;18.47;79.95;95453.16;1740542;82;21503;-58
2021/07/15 00:19:38;;;;;;;13.48;10.88;;;;;;;18.44;79.92;95448.42;1740300;82;21009;-58
2021/07/15 00:22:05;;;;;;;12.20;9.98;;;;;;;18.41;79.55;95448.59;1740464;82;21045;-58
2021/07/15 00:24:32;;;;;;;12.18;10.28;;;;;;;18.36;80.53;95444.81;1740471;82;20990;-59
2021/07/15 00:26:59;;;;;;;14.68;11.38;;;;;;;18.36;80.53;95444.81;1740551;82;21052;-58
2021/07/15 00:29:25;;;;;;;15.00;11.00;;;;;;;18.37;79.77;95454.09;1740391;82;21050;-58
2021/07/15 00:31:53;;;;;;;11.18;10.08;;;;;;;18.35;79.72;95448.45;1740343;82;21053;-58
2021/07/15 00:34:19;;;;;;;16.48;10.25;;;;;;;18.37;79.43;95450.09;1753293;81;21006;-58
2021/07/15 00:36:45;;;;;;;12.78;11.03;;;;;;;18.28;79.13;95461.72;1766203;81;21087;-59
2021/07/15 00:39:12;;;;;;;13.58;12.18;;;;;;;18.10;80.56;95464.84;1766450;81;20975;-58
2021/07/15 00:53:37;;;;;;;13.38;10.78;;;;;;;17.84;81.06;95467.02;1765892;81;21029;-60
2021/07/15 00:56:05;;;;;;;13.35;10.35;;;;;;;17.80;80.55;95471.23;1766265;81;21022;-60
2021/07/15 00:58:32;;;;;;;12.18;10.70;;;;;;;17.70;80.21;95454.77;1766260;81;21054;-60
2021/07/15 01:00:59;;;;;;;12.05;10.43;;;;;;;17.72;80.25;95459.09;1766264;81;21480;-60
2021/07/15 01:03:26;;;;;;;12.07;10.35;;;;;;;17.72;80.80;95456.42;1766214;81;21496;-61
2021/07/15 01:05:57;;;;;;;12.90;11.57;;;;;;;17.67;81.54;95458.45;1766522;81;21015;-60
2021/07/15 01:08:24;;;;;;;14.25;10.65;;;;;;;17.68;82.21;95461.50;1765941;81;21062;-60
2021/07/15 01:11:15;;;;;;;15.03;10.63;;;;;;;17.72;81.66;95458.23;1766001;81;21098;-60
2021/07/15 01:13:53;;;;;;;14.60;11.40;;;;;;;17.68;81.54;95460.17;1766116;81;21010;-60
2021/07/15 01:16:33;;;;;;;15.80;10.85;;;;;;;17.61;82.26;95458.73;1765918;81;21643;-60
2021/07/15 01:19:34;;;;;;;15.30;11.15;;;;;;;17.61;82.26;95458.73;1766163;81;21029;-60
2021/07/15 01:22:30;;;;;;;11.60;10.23;;;;;;;17.62;81.71;95460.48;1765984;81;21030;-60
2021/07/15 01:25:51;;;;;;;14.55;11.55;;;;;;;17.66;81.51;95461.19;1765762;81;22247;-60
2021/07/15 01:28:45;;;;;;;13.48;11.33;;;;;;;17.68;81.93;95456.64;1706438;84;21026;-60
2021/07/15 01:31:15;;;;;;;15.58;12.88;;;;;;;17.72;81.86;95452.42;1706155;84;21034;-58
2021/07/15 01:33:44;;;;;;;15.30;11.40;;;;;;;17.79;81.55;95451.66;1746659;81;21050;-59
2021/07/15 01:36:18;;;;;;;17.25;11.30;;;;;;;17.76;81.06;95447.78;1762354;81;20991;-58
2021/07/15 01:38:51;;;;;;;13.00;10.25;;;;;;;17.76;81.03;95442.92;1762464;81;21019;-57
2021/07/15 01:41:28;;;;;;;14.10;10.38;;;;;;;17.69;80.75;95437.91;1761855;81;21062;-57
2021/07/15 01:44:03;;;;;;;12.07;10.28;;;;;;;17.69;80.75;95437.91;1762617;81;21030;-58
2021/07/15 01:46:29;;;;;;;17.37;10.95;;;;;;;17.64;81.23;95433.27;1762362;81;21058;-57
2021/07/15 01:48:56;;;;;;;16.82;10.88;;;;;;;17.57;81.88;95437.17;1762341;81;20990;-58
2021/07/15 01:51:23;;;;;;;11.40;10.32;;;;;;;17.61;81.79;95436.06;1762468;81;21019;-58
2021/07/15 01:53:52;;;;;;;12.73;10.60;;;;;;;17.66;81.30;95444.70;1762640;81;21037;-57
2021/07/15 01:56:22;;;;;;;16.07;11.68;;;;;;;17.70;81.67;95443.63;1762729;81;21011;-58
2021/07/15 01:58:49;;;;;;;13.20;10.88;;;;;;;17.70;81.04;95446.77;1762429;81;21030;-57
2021/07/15 02:01:19;;;;;;;16.93;10.95;;;;;;;17.68;81.39;95440.64;1728675;81;21054;-57
2021/07/15 02:03:54;;;;;;;15.95;11.18;;;;;;;17.68;81.67;95436.16;1762496;81;21078;-58
2021/07/15 02:06:22;;;;;;;14.18;11.60;;;;;;;17.71;81.81;95436.03;1762575;81;21010;-58
2021/07/15 02:08:52;;;;;;;12.05;10.80;;;;;;;17.79;81.60;95433.43;1762653;81;20998;-57
2021/07/15 02:11:22;;;;;;;13.48;11.15;;;;;;;17.85;80.98;95435.84;1762707;81;21500;-57
2021/07/15 02:13:49;;;;;;;18.98;12.30;;;;;;;17.80;81.12;95435.21;1762597;81;21038;-58
2021/07/15 02:16:18;;;;;;;13.43;10.38;;;;;;;17.80;80.88;95437.88;1762847;81;21049;-57
2021/07/15 02:18:46;;;;;;;13.20;11.18;;;;;;;17.78;80.70;95435.23;1762749;81;20979;-58
2021/07/15 02:21:15;;;;;;;15.55;11.63;;;;;;;17.79;80.81;95444.99;1762308;81;21014;-57
2021/07/15 02:23:44;;;;;;;16.93;11.93;;;;;;;17.86;80.98;95443.75;1762753;81;20982;-57
2021/07/15 02:26:12;;;;;;;16.93;11.90;;;;;;;17.92;80.91;95443.95;1762651;81;21002;-58
2021/07/15 02:28:39;;;;;;;13.18;11.25;;;;;;;17.88;80.42;95446.36;1762880;81;21500;-57
2021/07/15 02:31:16;;;;;;;12.88;11.55;;;;;;;17.88;80.42;95446.36;1762938;81;21014;-57
2021/07/15 02:33:50;;;;;;;17.00;10.72;;;;;;;17.89;80.46;95448.97;1762587;81;21035;-59
2021/07/15 02:36:18;;;;;;;12.65;11.30;;;;;;;17.82;80.07;95456.88;1766045;81;21029;-57
2021/07/15 02:38:47;;;;;;;13.05;11.00;;;;;;;17.81;80.12;95451.61;1766110;81;21015;-58
2021/07/15 02:41:14;;;;;;;17.98;11.43;;;;;;;17.74;80.61;95452.36;1766021;81;21086;-57
2021/07/15 02:43:40;;;;;;;17.12;10.78;;;;;;;17.68;80.57;95457.50;1766496;81;21539;-58
2021/07/15 02:46:07;;;;;;;11.38;10.18;;;;;;;17.60;81.38;95450.35;1766564;81;21062;-57
2021/07/15 02:48:33;;;;;;;13.65;10.93;;;;;;;17.60;81.86;95452.16;1766132;81;20987;-58
2021/07/15 02:50:59;;;;;;;13.48;11.28;;;;;;;17.56;81.26;95454.09;1766324;81;21030;-57
2021/07/15 02:53:26;;;;;;;14.15;10.58;;;;;;;17.54;81.19;95449.33;1766080;81;21096;-58
2021/07/15 02:55:58;;;;;;;14.20;10.70;;;;;;;17.47;82.66;95446.55;1766336;81;20975;-57
2021/07/15 02:58:35;;;;;;;12.93;11.10;;;;;;;17.48;82.38;95453.13;1766166;81;21528;-57
2021/07/15 03:01:07;;;;;;;14.43;11.15;;;;;;;17.49;82.59;95456.21;1766463;81;20986;-57
2021/07/15 03:04:06;;;;;;;13.65;10.48;;;;;;;17.43;81.73;95455.63;1766360;81;21006;-57
2021/07/15 03:06:39;;;;;;;15.88;11.25;;;;;;;17.43;81.73;95455.63;1711374;81;21057;-60
2021/07/15 03:09:17;;;;;;;13.98;10.95;;;;;;;17.43;81.65;95456.48;1766592;81;21010;-60
2021/07/15 03:11:57;;;;;;;13.98;10.48;;;;;;;17.48;81.55;95457.61;1765776;81;21038;-60
2021/07/15 03:14:22;;;;;;;10.48;9.48;;;;;;;17.43;82.20;95456.48;1766166;81;21599;-60
2021/07/15 03:16:49;;;;;;;11.80;10.60;;;;;;;17.48;82.23;95456.27;1766288;81;21054;-60
2021/07/15 03:19:18;;;;;;;16.20;10.58;;;;;;;17.41;82.83;95453.05;1766379;81;21013;-60
2021/07/15 03:21:45;;;;;;;16.05;11.03;;;;;;;17.43;82.59;95447.62;1766323;81;20979;-60
2021/07/15 03:24:14;;;;;;;12.35;10.70;;;;;;;17.42;82.80;95448.58;1765913;81;21062;-60
2021/07/15 03:26:42;;;;;;;13.78;10.90;;;;;;;17.50;83.12;95457.92;1761539;81;21007;-60
2021/07/15 03:29:12;;;;;;;16.30;10.13;;;;;;;17.50;83.12;95457.92;1766327;81;21090;-60
2021/07/15 03:31:39;;;;;;;14.93;10.75;;;;;;;17.57;82.67;95449.17;1766203;81;21038;-60
2021/07/15 03:34:06;;;;;;;13.20;11.48;;;;;;;17.68;82.55;95458.84;1766276;81;21022;-60
2021/07/15 03:36:33;;;;;;;13.53;11.53;;;;;;;17.75;82.50;95451.41;1765874;81;21030;-60
2021/07/15 03:39:01;;;;;;;13.15;11.20;;;;;;;17.91;82.19;95460.88;1766425;81;21141;-60
2021/07/15 03:41:28;;;;;;;13.85;12.35;;;;;;;18.05;81.68;95462.41;1766491;81;21480;-60
2021/07/15 03:43:55;;;;;;;14.47;11.12;;;;;;;18.18;80.97;95465.80;1736345;81;21041;-60
2021/07/15 03:46:22;;;;;;;13.68;12.05;;;;;;;18.18;80.00;95472.00;1766363;81;21045;-60
2021/07/15 03:48:49;;;;;;;12.37;10.90;;;;;;;18.23;79.95;95471.77;1766515;81;21029;-60
2021/07/15 03:51:16;;;;;;;13.90;11.12;;;;;;;18.26;79.77;95465.79;1766022;81;21490;-60
2021/07/15 03:53:45;;;;;;;15.63;11.97;;;;;;;18.24;80.02;95472.15;1766444;81;21013;-60
2021/07/15 03:56:15;;;;;;;12.40;10.88;;;;;;;18.22;79.59;95465.57;1766261;81;21046;-60
2021/07/15 03:58:44;;;;;;;14.73;11.70;;;;;;;18.22;79.75;95462.91;1766433;81;21041;-60
2021/07/15 04:01:13;;;;;;;22.20;13.10;;;;;;;18.15;80.44;95456.99;1736491;81;21093;-60
2021/07/15 04:03:42;;;;;;;18.92;13.13;;;;;;;18.21;80.39;95465.16;1766348;81;21018;-60
2021/07/15 04:06:11;;;;;;;14.05;12.00;;;;;;;18.31;80.00;95463.74;1766087;81;21041;-60
2021/07/15 04:08:43;;;;;;;16.87;12.65;;;;;;;18.36;80.39;95469.72;1766323;81;21034;-60
2021/07/15 04:11:13;;;;;;;17.17;12.88;;;;;;;18.43;80.31;95474.28;1766519;81;20987;-60
2021/07/15 04:13:43;;;;;;;15.63;12.65;;;;;;;18.46;79.95;95474.12;1766067;81;21042;-60
2021/07/15 04:16:27;;;;;;;24.80;13.15;;;;;;;18.49;79.96;95470.42;1766433;81;21567;-60
2021/07/15 04:18:57;;;;;;;17.27;12.40;;;;;;;18.52;79.82;95467.14;1766319;81;21507;-60
2021/07/15 04:21:25;;;;;;;14.07;10.55;;;;;;;18.62;79.37;95474.17;1766356;81;21543;-60
2021/07/15 04:23:55;;;;;;;16.87;11.08;;;;;;;18.60;78.36;95471.61;1766275;81;21029;-60
2021/07/15 04:26:23;;;;;;;15.23;12.05;;;;;;;18.62;78.54;95470.65;1766172;81;21042;-60
2021/07/15 04:28:51;;;;;;;19.02;13.10;;;;;;;18.71;78.79;95475.05;1766287;81;21014;-60
2021/07/15 04:31:40;;;;;;;18.55;13.30;;;;;;;18.83;78.81;95474.05;1766483;81;20951;-60
2021/07/15 04:34:07;;;;;;;14.20;11.43;;;;;;;18.95;78.89;95476.05;1766156;81;20999;-60
2021/07/15 04:36:35;;;;;;;12.98;11.05;;;;;;;19.11;78.45;95472.95;1762412;81;21034;-60
2021/07/15 04:39:02;;;;;;;14.75;10.75;;;;;;;19.25;77.79;95472.19;1763042;81;20995;-60
2021/07/15 04:41:30;;;;;;;14.75;10.32;;;;;;;19.38;77.76;95469.73;1762395;81;21515;-60
2021/07/15 04:43:59;;;;;;;13.90;10.28;;;;;;;19.51;77.73;95469.91;1762481;81;21041;-60
2021/07/15 04:46:27;;;;;;;18.77;10.78;;;;;;;19.58;77.70;95468.59;1728879;81;21022;-60
2021/07/15 04:48:53;;;;;;;16.40;10.55;;;;;;;19.71;77.93;95467.49;1762394;81;21026;-60
2021/07/15 04:51:22;;;;;;;13.30;10.25;;;;;;;19.85;77.70;95471.09;1762063;81;21130;-60
2021/07/15 04:53:49;;;;;;;15.45;11.35;;;;;;;19.97;77.79;95472.69;1762760;81;21018;-60
2021/07/15 04:56:16;;;;;;;13.48;9.95;;;;;;;20.05;76.77;95471.77;1762384;81;21090;-60
2021/07/15 04:58:44;;;;;;;14.43;11.00;;;;;;;20.09;76.23;95471.50;1762648;81;20963;-60
2021/07/15 05:01:11;;;;;;;15.20;10.50;;;;;;;20.19;75.47;95474.52;1762397;81;21022;-60
2021/07/15 05:03:39;;;;;;;15.45;11.53;;;;;;;20.22;74.78;95470.79;1762421;81;21057;-60
2021/07/15 05:06:08;;;;;;;17.25;11.93;;;;;;;20.25;74.46;95467.44;1762445;81;21042;-60
2021/07/15 05:08:37;;;;;;;18.98;11.65;;;;;;;20.37;74.87;95464.52;1762351;81;21018;-60
2021/07/15 05:11:03;;;;;;;16.20;11.83;;;;;;;20.52;74.72;95475.67;1762525;81;21018;-60
2021/07/15 05:13:30;;;;;;;14.63;11.88;;;;;;;20.62;74.50;95471.14;1762424;81;21046;-60
2021/07/15 05:15:56;;;;;;;16.70;12.05;;;;;;;20.66;74.64;95473.55;1762560;81;20990;-60
2021/07/15 05:18:23;;;;;;;17.87;12.18;;;;;;;20.75;74.70;95474.80;1762596;81;21480;-60
2021/07/15 05:20:51;;;;;;;23.38;13.85;;;;;;;20.85;74.65;95476.45;1762412;81;21010;-60
2021/07/15 05:23:18;;;;;;;20.40;12.45;;;;;;;20.94;74.93;95470.50;1762498;81;21007;-60
2021/07/15 05:25:45;;;;;;;19.57;13.75;;;;;;;21.02;74.90;95474.08;1762530;81;21029;-60
2021/07/15 05:28:12;;;;;;;17.35;13.43;;;;;;;21.14;74.80;95475.52;1762668;81;21003;-60
2021/07/15 05:30:38;;;;;;;18.82;13.20;;;;;;;21.23;74.30;95476.75;1762376;81;21070;-60
2021/07/15 05:33:05;;;;;;;19.35;13.18;;;;;;;21.33;74.26;95474.36;1762314;81;21066;-60
2021/07/15 05:35:33;;;;;;;18.92;13.30;;;;;;;21.45;74.40;95483.02;1728524;81;21074;-60
2021/07/15 05:38:00;;;;;;;18.62;12.98;;;;;;;21.56;74.17;95486.35;1762283;81;21429;-60
2021/07/15 05:40:27;;;;;;;16.93;13.35;;;;;;;21.58;73.14;95481.27;1762579;81;21010;-60
2021/07/15 05:42:53;;;;;;;13.70;10.48;;;;;;;21.64;72.83;95477.80;1762648;81;20999;-60
2021/07/15 05:45:20;;;;;;;19.70;12.13;;;;;;;21.66;72.55;95479.92;1762751;81;21500;-60
2021/07/15 05:47:46;;;;;;;15.00;11.57;;;;;;;21.75;72.77;95472.63;1762707;81;21038;-60
2021/07/15 05:50:13;;;;;;;14.60;11.18;;;;;;;21.90;72.86;95477.00;1762646;81;20986;-60
2021/07/15 05:52:40;;;;;;;15.40;11.80;;;;;;;22.08;72.59;95475.41;1762629;81;21010;-60
2021/07/15 05:55:08;;;;;;;15.48;9.48;;;;;;;22.20;71.14;95474.60;1762733;81;21492;-60
2021/07/15 05:57:34;;;;;;;16.57;11.22;;;;;;;22.30;70.65;95475.75;1762445;81;21065;-60
2021/07/15 06:00:04;;;;;;;12.55;10.53;;;;;;;22.42;70.93;95470.86;1762795;81;21508;-60
2021/07/15 06:02:31;;;;;;;18.00;11.40;;;;;;;22.66;71.05;95476.91;1762633;81;21031;-60
2021/07/15 06:04:57;;;;;;;15.23;11.53;;;;;;;22.89;70.80;95469.45;1762503;81;21058;-60
2021/07/15 06:07:24;;;;;;;16.40;11.85;;;;;;;23.11;70.55;95478.77;1762533;81;21055;-60
2021/07/15 06:09:50;;;;;;;16.10;13.00;;;;;;;23.26;69.41;95471.44;1762570;81;21038;-60
2021/07/15 06:12:17;;;;;;;16.52;12.73;;;;;;;23.40;69.23;95474.48;1762748;81;21014;-60
2021/07/15 06:14:43;;;;;;;16.70;14.68;;;;;;;23.54;69.09;95476.56;1762786;81;21524;-60
2021/07/15 06:17:10;;;;;;;22.75;13.83;;;;;;;23.63;67.98;95475.03;1763024;81;20986;-60
2021/07/15 06:19:36;;;;;;;21.65;15.13;;;;;;;23.68;67.83;95475.55;1762490;81;21010;-60
2021/07/15 06:22:04;;;;;;;26.60;17.25;;;;;;;23.80;68.17;95474.34;1762287;81;20967;-60
2021/07/15 06:24:31;;;;;;;27.10;17.05;;;;;;;23.94;68.31;95475.55;1762613;81;21094;-60
2021/07/15 06:26:58;;;;;;;20.92;17.25;;;;;;;24.00;67.60;95481.81;1762465;81;21058;-60
2021/07/15 06:29:26;;;;;;;21.02;17.02;;;;;;;24.11;67.90;95474.28;1762490;81;21536;-60
2021/07/15 06:31:52;;;;;;;25.82;17.80;;;;;;;24.20;68.23;95470.91;1762518;81;21066;-61
2021/07/15 06:34:19;;;;;;;20.52;17.80;;;;;;;24.37;68.30;95472.35;1762587;81;21030;-60
2021/07/15 06:36:46;;;;;;;21.75;18.05;;;;;;;24.47;67.47;95480.61;1765727;81;21050;-60
2021/07/15 06:39:14;;;;;;;21.97;17.55;;;;;;;24.56;67.46;95475.39;1766255;81;21312;-60
2021/07/15 06:41:41;;;;;;;22.07;18.25;;;;;;;24.68;67.31;95475.45;1766495;81;21507;-60
2021/07/15 06:44:09;;;;;;;24.12;17.25;;;;;;;24.75;66.57;95472.66;1766364;81;21050;-60
2021/07/15 06:46:38;;;;;;;20.43;16.87;;;;;;;24.88;66.93;95471.22;1766398;81;20993;-60
2021/07/15 06:49:04;;;;;;;22.98;16.65;;;;;;;24.99;66.76;95472.58;1766219;81;21504;-60
2021/07/15 06:51:34;;;;;;;25.12;17.85;;;;;;;25.09;65.49;95465.48;1766265;81;21044;-60
2021/07/15 06:54:01;;;;;;;18.50;15.75;;;;;;;25.16;65.13;95454.61;1765469;81;21073;-60
2021/07/15 06:56:27;;;;;;;24.25;16.48;;;;;;;25.25;65.23;95451.69;1766597;81;21036;-60
2021/07/15 06:58:54;;;;;;;20.68;16.75;;;;;;;25.32;64.88;95452.04;1766457;81;21559;-60
2021/07/15 07:01:21;;;;;;;21.15;16.60;;;;;;;25.39;64.35;95457.33;1766287;81;21026;-60
2021/07/15 07:03:47;;;;;;;19.52;17.52;;;;;;;25.43;65.02;95461.02;1766422;81;21070;-60
2021/07/15 07:06:14;;;;;;;21.35;16.85;;;;;;;25.49;64.62;95458.31;1766172;81;21054;-61
2021/07/15 07:08:40;;;;;;;22.10;16.75;;;;;;;25.56;64.17;95468.14;1766008;81;21113;-60
2021/07/15 07:11:07;;;;;;;25.92;16.75;;;;;;;25.63;63.64;95462.12;1761514;81;21022;-60
2021/07/15 07:13:33;;;;;;;22.40;16.30;;;;;;;25.78;63.28;95461.84;1766126;81;21107;-60
2021/07/15 07:15:59;;;;;;;20.70;15.80;;;;;;;25.84;62.22;95459.52;1766503;81;20998;-60
2021/07/15 07:18:26;;;;;;;17.50;15.88;;;;;;;25.88;62.28;95456.97;1766067;81;21098;-60
2021/07/15 07:20:53;;;;;;;18.52;16.00;;;;;;;26.00;63.25;95462.34;1736583;81;21006;-62
2021/07/15 07:23:20;;;;;;;30.05;16.65;;;;;;;26.14;62.93;95465.28;1766157;81;21078;-60
2021/07/15 07:25:46;;;;;;;17.40;15.45;;;;;;;26.15;60.32;95466.48;1766423;81;21007;-60
2021/07/15 07:28:13;;;;;;;26.73;17.25;;;;;;;26.23;61.17;95463.15;1766311;81;21011;-61
2021/07/15 07:30:40;;;;;;;20.35;15.72;;;;;;;26.31;61.81;95461.55;1766314;81;21547;-60
2021/07/15 07:33:06;;;;;;;20.17;16.35;;;;;;;26.37;60.55;95457.95;1766589;81;21014;-61
2021/07/15 07:35:33;;;;;;;18.87;15.28;;;;;;;26.45;60.57;95463.58;1766183;81;21084;-60
2021/07/15 07:37:59;;;;;;;23.00;15.45;;;;;;;26.47;60.64;95463.81;1766460;81;21005;-60
2021/07/15 07:40:26;;;;;;;27.35;15.63;;;;;;;26.58;61.54;95460.73;1766212;81;21031;-60
2021/07/15 07:42:54;;;;;;;18.23;16.00;;;;;;;26.71;62.05;95472.22;1766186;81;21041;-60
2021/07/15 07:45:23;;;;;;;19.30;15.80;;;;;;;26.83;62.09;95468.48;1765394;81;21014;-60
2021/07/15 07:47:49;;;;;;;20.02;16.23;;;;;;;26.94;61.62;95468.94;1765527;81;21550;-60
2021/07/15 07:50:16;;;;;;;19.23;16.07;;;;;;;27.08;62.02;95467.23;1766337;81;21086;-60
2021/07/15 07:52:43;;;;;;;20.23;16.52;;;;;;;27.21;62.58;95464.84;1766260;81;21472;-60
2021/07/15 07:55:11;;;;;;;18.98;16.42;;;;;;;27.24;60.17;95455.98;1766362;81;21057;-61
2021/07/15 07:57:38;;;;;;;19.42;16.45;;;;;;;27.32;60.67;95453.95;1766284;81;21539;-60
2021/07/15 08:00:09;;;;;;;21.80;16.55;;;;;;;27.38;60.29;95453.41;1766523;81;21030;-60
2021/07/15 08:02:40;;;;;;;18.98;16.12;;;;;;;27.46;60.88;95454.93;1766326;81;21496;-60
2021/07/15 08:05:09;;;;;;;17.37;15.55;;;;;;;27.55;60.42;95455.98;1765774;81;21026;-60
2021/07/15 08:07:36;;;;;;;19.05;15.30;;;;;;;27.60;60.70;95455.94;1766232;81;20994;-60
2021/07/15 08:10:08;;;;;;;18.73;16.50;;;;;;;27.75;60.76;95452.86;1766299;81;21023;-61
2021/07/15 08:12:35;;;;;;;17.57;15.67;;;;;;;27.81;60.46;95459.96;1766562;81;21002;-60
2021/07/15 08:15:02;;;;;;;18.70;16.45;;;;;;;27.89;60.91;95457.92;1766419;81;21002;-61
2021/07/15 08:17:28;;;;;;;18.70;15.68;;;;;;;28.03;60.97;95460.76;1766559;81;20975;-60
2021/07/15 08:19:54;;;;;;;18.80;15.15;;;;;;;28.18;61.23;95461.23;1766511;81;21114;-60
2021/07/15 08:22:24;;;;;;;19.48;15.72;;;;;;;28.22;59.71;95462.64;1766170;81;21520;-61
2021/07/15 08:24:50;;;;;;;16.57;14.85;;;;;;;28.31;59.65;95469.10;1765953;81;21504;-60
2021/07/15 08:27:17;;;;;;;19.00;15.00;;;;;;;28.39;59.05;95466.53;1766633;81;21018;-61
2021/07/15 08:29:43;;;;;;;16.42;14.55;;;;;;;28.52;58.42;95467.66;1766275;81;21540;-61
2021/07/15 08:32:10;;;;;;;20.65;14.98;;;;;;;28.61;58.35;95461.38;1766182;81;21053;-60
2021/07/15 08:34:36;;;;;;;16.62;14.35;;;;;;;28.72;58.43;95468.52;1766113;81;21026;-60
2021/07/15 08:37:03;;;;;;;16.55;14.65;;;;;;;28.76;57.84;95464.02;1730978;81;21559;-61
2021/07/15 08:39:31;;;;;;;19.55;14.73;;;;;;;28.83;56.97;95458.89;1762241;81;21113;-60
2021/07/15 08:42:00;;;;;;;23.20;15.18;;;;;;;28.96;57.98;95458.09;1762510;81;20998;-61
2021/07/15 08:44:28;;;;;;;20.68;14.15;;;;;;;29.10;57.10;95459.52;1762390;80;21063;-60
2021/07/15 08:46:57;;;;;;;15.75;14.13;;;;;;;29.18;55.45;95449.27;1762176;81;21010;-61
2021/07/15 08:49:24;;;;;;;18.98;14.65;;;;;;;29.06;53.14;95457.60;1729097;81;20990;-60
2021/07/15 08:51:50;;;;;;;23.07;14.90;;;;;;;29.17;52.33;95453.01;1762372;81;21106;-61
2021/07/15 08:54:17;;;;;;;17.80;14.63;;;;;;;29.28;54.39;95450.99;1762115;81;21034;-60
2021/07/15 08:56:47;;;;;;;20.60;13.70;;;;;;;29.40;54.61;95447.58;1762637;81;21007;-61
2021/07/15 08:59:16;;;;;;;20.70;14.15;;;;;;;29.59;55.30;95441.74;1762390;81;21023;-62
2021/07/15 09:01:55;;;;;;;15.95;14.25;;;;;;;29.73;54.01;95446.70;1762667;81;20987;-60
2021/07/15 09:04:22;;;;;;;17.65;14.20;;;;;;;29.80;54.14;95442.38;1762400;81;21055;-60
2021/07/15 09:06:50;;;;;;;16.67;14.75;;;;;;;29.88;53.80;95441.63;1762125;81;21014;-60
2021/07/15 09:09:17;;;;;;;16.67;14.98;;;;;;;29.96;55.26;95449.41;1762613;81;21051;-60
2021/07/15 09:11:45;;;;;;;17.12;15.30;;;;;;;30.08;54.21;95444.59;1762525;81;21030;-61
2021/07/15 09:14:22;;;;;;;16.40;14.70;;;;;;;30.07;53.98;95451.06;1762324;81;21006;-61
2021/07/15 09:16:57;;;;;;;16.87;13.90;;;;;;;30.14;53.77;95448.59;1762627;81;21468;-60
2021/07/15 09:19:30;;;;;;;20.30;14.68;;;;;;;30.22;52.84;95449.20;1762352;81;21094;-60
2021/07/15 09:22:06;;;;;;;22.47;14.73;;;;;;;30.04;51.59;95451.84;1762135;81;21520;-61
2021/07/15 09:24:48;;;;;;;16.57;14.23;;;;;;;30.02;52.65;95452.02;1761823;81;21054;-61
2021/07/15 09:27:16;;;;;;;19.80;15.63;;;;;;;30.09;51.79;95447.69;1761846;81;21122;-61
2021/07/15 09:29:47;;;;;;;21.50;14.93;;;;;;;30.17;53.14;95442.34;1762702;81;21078;-61
2021/07/15 09:32:17;;;;;;;18.67;15.65;;;;;;;30.41;53.89;95446.36;1728661;81;21701;-61
2021/07/15 09:34:44;;;;;;;20.15;14.58;;;;;;;30.59;52.05;95443.64;1762539;81;21058;-61
2021/07/15 09:37:15;;;;;;;22.42;14.15;;;;;;;30.66;51.75;95443.37;1762388;81;21094;-61
2021/07/15 09:39:46;;;;;;;20.45;14.53;;;;;;;30.75;52.38;95438.88;1762528;81;21030;-61
2021/07/15 09:42:19;;;;;;;15.98;13.55;;;;;;;30.87;51.98;95443.59;1762513;81;21476;-61
2021/07/15 09:44:50;;;;;;;20.45;14.20;;;;;;;30.93;52.81;95448.43;1762581;81;21587;-61
2021/07/15 09:47:43;;;;;;;15.95;14.35;;;;;;;30.88;49.90;95443.45;1762655;81;20994;-61
2021/07/15 09:50:23;;;;;;;17.85;13.83;;;;;;;30.88;51.16;95443.45;1762352;81;21011;-61
2021/07/15 09:52:49;;;;;;;15.10;13.15;;;;;;;31.01;50.36;95441.16;1760689;81;20987;-61
2021/07/15 09:55:23;;;;;;;15.83;14.28;;;;;;;31.17;51.75;95436.85;1762477;81;21018;-61
2021/07/15 09:58:07;;;;;;;16.55;14.03;;;;;;;31.17;49.96;95443.66;1762631;81;20974;-61
2021/07/15 10:00:46;;;;;;;21.97;14.23;;;;;;;31.29;51.35;95435.58;1762473;81;21026;-61
2021/07/15 10:03:15;;;;;;;16.65;14.78;;;;;;;31.42;50.41;95433.30;1762583;81;21014;-61
2021/07/15 10:06:02;;;;;;;17.07;14.05;;;;;;;31.58;49.81;95429.00;1762474;81;20987;-60
2021/07/15 10:08:30;;;;;;;17.30;14.60;;;;;;;31.80;50.57;95431.16;1760696;81;21014;-61
2021/07/15 10:11:16;;;;;;;17.87;14.23;;;;;;;31.84;47.20;95429.80;1758627;81;21069;-61
2021/07/15 10:13:45;;;;;;;18.45;13.75;;;;;;;31.95;46.64;95431.92;1762477;81;21018;-60
2021/07/15 10:16:13;;;;;;;17.37;13.38;;;;;;;32.24;48.63;95433.73;1762543;81;21026;-61
2021/07/15 10:18:49;;;;;;;17.87;14.55;;;;;;;32.29;47.91;95431.36;1762325;81;20991;-61
2021/07/15 10:21:15;;;;;;;16.62;14.30;;;;;;;32.32;45.60;95434.27;1762477;81;21553;-61
2021/07/15 10:23:48;;;;;;;17.05;14.83;;;;;;;32.32;46.71;95439.22;1762066;81;21086;-61
2021/07/15 10:26:15;;;;;;;16.70;14.03;;;;;;;32.16;47.02;95435.09;1762671;81;21481;-61
2021/07/15 10:28:45;;;;;;;16.32;14.73;;;;;;;32.04;48.58;95437.25;1762680;81;21023;-61
2021/07/15 10:31:14;;;;;;;17.00;14.95;;;;;;;32.09;49.23;95434.87;1762322;81;21517;-61
2021/07/15 10:33:43;;;;;;;16.73;14.78;;;;;;;32.29;49.68;95432.73;1762583;81;21073;-61
2021/07/15 10:36:11;;;;;;;16.85;14.98;;;;;;;32.53;48.10;95422.42;1762626;81;21042;-61
2021/07/15 10:38:48;;;;;;;15.93;13.90;;;;;;;32.63;48.16;95424.12;1762277;81;21017;-61
2021/07/15 10:41:14;;;;;;;16.25;14.75;;;;;;;32.72;47.73;95433.53;1762716;81;21018;-61
2021/07/15 10:43:42;;;;;;;16.80;14.90;;;;;;;32.66;46.56;95431.97;1762649;81;21010;-61
2021/07/15 10:46:09;;;;;;;19.45;14.78;;;;;;;32.53;46.72;95431.10;1762469;81;21023;-60
2021/07/15 10:48:37;;;;;;;19.35;15.43;;;;;;;32.53;48.47;95427.00;1762793;81;21038;-61
2021/07/15 10:51:05;;;;;;;18.07;14.78;;;;;;;32.43;46.48;95430.36;1762553;81;21568;-61
2021/07/15 10:53:39;;;;;;;16.20;13.93;;;;;;;31.94;46.09;95431.07;1761865;81;21541;-61
2021/07/15 10:56:07;;;;;;;16.57;14.83;;;;;;;31.51;47.54;95422.47;1762339;81;21018;-61
2021/07/15 10:58:50;;;;;;;16.50;14.80;;;;;;;31.08;48.25;95414.66;1762598;81;21079;-61
2021/07/15 11:01:41;;;;;;;17.15;15.35;;;;;;;30.67;49.08;95420.59;1762806;81;21027;-60
2021/07/15 11:04:14;;;;;;;24.63;15.63;;;;;;;30.41;50.03;95416.41;1762802;81;20986;-61
2021/07/15 11:06:45;;;;;;;28.27;16.05;;;;;;;30.06;51.35;95430.28;1762511;81;21042;-61
2021/07/15 11:09:31;;;;;;;18.87;16.15;;;;;;;29.80;52.33;95430.66;1762497;81;21050;-60
2021/07/15 11:12:00;;;;;;;19.60;15.85;;;;;;;29.54;53.45;95440.83;1762688;81;21058;-60
2021/07/15 11:14:46;;;;;;;18.45;16.10;;;;;;;29.26;55.04;95431.77;1728445;81;21030;-60
2021/07/15 11:17:26;;;;;;;20.70;17.02;;;;;;;29.02;57.57;95440.34;1762438;81;21508;-58
2021/07/15 11:20:08;;;;;;;22.90;16.25;;;;;;;28.71;58.72;95435.09;1762511;81;21014;-58
2021/07/15 11:22:45;;;;;;;23.40;18.15;;;;;;;28.48;59.91;95439.95;1762681;81;21054;-58
2021/07/15 11:25:20;;;;;;;24.12;17.80;;;;;;;28.24;59.97;95452.01;1762654;81;21492;-58
2021/07/15 11:27:52;;;;;;;21.15;17.10;;;;;;;28.10;61.40;95455.62;1727862;81;21493;-58
2021/07/15 11:30:37;;;;;;;;;;;;;;;28.01;62.77;95458.17;1765381;81;21457;-58
2021/07/15 11:33:26;;;;;;;61.33;34.98;;;;;;;27.94;63.63;95453.44;1762658;81;20107;-58
2021/07/15 11:36:09;;;;;;;71.33;36.90;;;;;;;27.83;64.30;95452.55;1762421;81;20963;-58
2021/07/15 11:38:44;;;;;;;69.20;36.00;;;;;;;27.58;65.58;95459.27;1765501;81;21061;-58
2021/07/15 11:41:16;;;;;;;68.15;34.78;;;;;;;27.43;67.18;95468.76;1766416;81;20998;-58